createdAt,value
2016-09-20T00:00:30.525Z,0.00
2016-09-20T00:01:31.324Z,0.00
2016-09-20T00:02:31.530Z,0.00
2016-09-20T00:03:32.347Z,0.00
2016-09-20T00:04:32.843Z,0.00
2016-09-20T00:05:33.334Z,0.00
2016-09-20T00:06:33.682Z,0.00
2016-09-20T00:07:34.027Z,0.00
2016-09-20T00:08:34.534Z,0.00
2016-09-20T00:09:35.177Z,0.00
2016-09-20T00:10:35.665Z,0.00
2016-09-20T00:11:36.200Z,0.00
2016-09-20T00:12:36.818Z,0.00
2016-09-20T00:13:37.159Z,0.00
2016-09-20T00:14:37.809Z,0.00
2016-09-20T00:15:38.011Z,0.00
2016-09-20T00:16:38.974Z,0.00
2016-09-20T00:17:39.021Z,0.00
2016-09-20T00:18:39.956Z,0.00
2016-09-20T00:19:40.459Z,0.00
2016-09-20T00:20:40.820Z,0.00
2016-09-20T00:21:41.348Z,0.00
2016-09-20T00:22:41.843Z,0.00
2016-09-20T00:23:42.337Z,0.00
2016-09-20T00:24:42.821Z,0.00
2016-09-20T00:25:43.013Z,0.00
2016-09-20T00:26:43.658Z,0.00
2016-09-20T00:27:44.320Z,0.00
2016-09-20T00:28:44.681Z,0.00
2016-09-20T00:29:45.455Z,0.00
2016-09-20T00:30:45.662Z,0.00
2016-09-20T00:31:46.163Z,0.00
2016-09-20T00:32:46.820Z,0.00
2016-09-20T00:33:47.048Z,0.00
2016-09-20T00:34:47.674Z,0.00
2016-09-20T00:35:48.466Z,0.00
2016-09-20T00:36:48.567Z,0.00
2016-09-20T00:37:49.199Z,0.00
2016-09-20T00:38:49.666Z,0.00
2016-09-20T00:39:50.056Z,0.00
2016-09-20T00:40:50.670Z,0.00
2016-09-20T00:41:51.476Z,0.00
2016-09-20T00:42:51.521Z,0.00
2016-09-20T00:43:52.213Z,0.00
2016-09-20T00:44:52.848Z,0.00
2016-09-20T00:45:53.347Z,0.00
2016-09-20T00:46:53.965Z,0.00
2016-09-20T00:47:54.038Z,0.00
2016-09-20T00:48:54.679Z,0.00
2016-09-20T00:49:55.313Z,0.00
2016-09-20T00:50:55.685Z,0.00
2016-09-20T00:51:56.165Z,0.00
2016-09-20T00:52:56.831Z,0.00
2016-09-20T00:53:57.174Z,0.00
2016-09-20T00:54:59.157Z,0.00
2016-09-20T00:55:58.187Z,0.00
2016-09-20T00:56:58.514Z,0.00
2016-09-20T00:57:59.312Z,0.00
2016-09-20T00:58:59.967Z,0.00
2016-09-20T01:00:00.311Z,0.00
2016-09-20T01:01:00.577Z,0.00
2016-09-20T01:02:01.311Z,0.00
2016-09-20T01:03:01.828Z,0.00
2016-09-20T01:04:02.020Z,0.00
2016-09-20T01:05:02.821Z,0.00
2016-09-20T01:06:03.465Z,0.00
2016-09-20T01:07:03.566Z,0.00
2016-09-20T01:08:04.190Z,0.00
2016-09-20T01:09:04.675Z,0.00
2016-09-20T01:10:05.181Z,0.00
2016-09-20T01:11:05.527Z,0.00
2016-09-20T01:12:06.055Z,0.00
2016-09-20T01:13:06.578Z,0.00
2016-09-20T01:14:07.361Z,0.00
2016-09-20T01:15:07.684Z,0.00
2016-09-20T01:16:08.481Z,0.00
2016-09-20T01:17:08.678Z,0.00
2016-09-20T01:18:09.326Z,0.00
2016-09-20T01:19:09.709Z,0.00
2016-09-20T01:20:10.211Z,0.00
2016-09-20T01:21:10.690Z,0.00
2016-09-20T01:22:11.183Z,0.00
2016-09-20T01:23:11.554Z,0.00
2016-09-20T01:24:12.361Z,0.00
2016-09-20T01:25:12.695Z,0.00
2016-09-20T01:26:13.193Z,0.00
2016-09-20T01:27:13.711Z,0.00
2016-09-20T01:28:14.035Z,0.00
2016-09-20T01:29:14.825Z,0.00
2016-09-20T01:30:15.338Z,0.00
2016-09-20T01:31:15.533Z,0.00
2016-09-20T01:32:16.315Z,0.00
2016-09-20T01:33:16.983Z,0.00
2016-09-20T01:34:17.045Z,0.00
2016-09-20T01:35:17.978Z,0.00
2016-09-20T01:36:18.341Z,0.00
2016-09-20T01:37:18.826Z,0.00
2016-09-20T01:38:19.171Z,0.00
2016-09-20T01:39:19.527Z,0.00
2016-09-20T01:40:20.341Z,0.00
2016-09-20T01:41:20.670Z,0.00
2016-09-20T01:42:21.196Z,0.00
2016-09-20T01:43:21.527Z,0.00
2016-09-20T01:44:22.476Z,0.00
2016-09-20T01:45:22.713Z,0.00
2016-09-20T01:46:23.185Z,0.00
2016-09-20T01:47:23.681Z,0.00
2016-09-20T01:48:24.187Z,0.00
2016-09-20T01:49:24.848Z,0.00
2016-09-20T01:50:25.174Z,0.00
2016-09-20T01:51:25.675Z,0.00
2016-09-20T01:52:26.027Z,0.00
2016-09-20T01:53:26.845Z,0.00
2016-09-20T01:54:27.177Z,0.00
2016-09-20T01:55:27.696Z,0.00
2016-09-20T01:56:28.030Z,0.00
2016-09-20T01:57:29.127Z,0.00
2016-09-20T01:58:29.052Z,0.00
2016-09-20T01:59:29.558Z,0.00
2016-09-20T02:00:30.184Z,0.00
2016-09-20T02:01:30.711Z,0.00
2016-09-20T02:02:31.203Z,0.00
2016-09-20T02:03:31.680Z,0.00
2016-09-20T02:04:32.320Z,0.00
2016-09-20T02:05:32.825Z,0.00
2016-09-20T02:06:33.048Z,0.00
2016-09-20T02:07:33.671Z,0.00
2016-09-20T02:08:34.320Z,0.00
2016-09-20T02:09:34.984Z,0.00
2016-09-20T02:10:35.316Z,0.00
2016-09-20T02:11:36.117Z,0.00
2016-09-20T02:12:36.012Z,0.00
2016-09-20T02:13:36.675Z,0.00
2016-09-20T02:14:37.181Z,0.00
2016-09-20T02:15:37.660Z,0.00
2016-09-20T02:16:38.164Z,0.00
2016-09-20T02:17:38.700Z,0.00
2016-09-20T02:18:39.200Z,0.00
2016-09-20T02:19:40.596Z,0.00
2016-09-20T02:20:40.188Z,0.00
2016-09-20T02:21:40.689Z,0.00
2016-09-20T02:22:41.035Z,0.00
2016-09-20T02:23:41.839Z,0.00
2016-09-20T02:24:42.501Z,0.00
2016-09-20T02:25:42.829Z,0.00
2016-09-20T02:26:43.206Z,0.00
2016-09-20T02:27:43.560Z,0.00
2016-09-20T02:28:44.323Z,0.00
2016-09-20T02:29:44.553Z,0.00
2016-09-20T02:30:45.256Z,0.00
2016-09-20T02:31:45.822Z,0.00
2016-09-20T02:32:46.324Z,0.00
2016-09-20T02:33:46.834Z,0.00
2016-09-20T02:34:47.473Z,0.00
2016-09-20T02:35:47.700Z,0.00
2016-09-20T02:36:48.328Z,0.00
2016-09-20T02:37:48.674Z,0.00
2016-09-20T02:38:49.354Z,0.00
2016-09-20T02:39:49.552Z,0.00
2016-09-20T02:40:50.198Z,0.00
2016-09-20T02:41:50.823Z,0.00
2016-09-20T02:42:51.033Z,0.00
2016-09-20T02:43:51.845Z,0.00
2016-09-20T02:44:52.189Z,0.00
2016-09-20T02:45:56.876Z,0.00
2016-09-20T02:46:53.067Z,0.00
2016-09-20T02:47:53.978Z,0.00
2016-09-20T02:48:54.214Z,0.00
2016-09-20T02:49:54.553Z,0.00
2016-09-20T02:50:55.176Z,0.00
2016-09-20T02:51:56.006Z,0.00
2016-09-20T02:52:56.346Z,0.00
2016-09-20T02:53:57.729Z,0.00
2016-09-20T02:54:57.179Z,0.00
2016-09-20T02:55:57.832Z,0.00
2016-09-20T02:56:58.504Z,0.00
2016-09-20T02:57:58.689Z,0.00
2016-09-20T02:58:59.194Z,0.00
2016-09-20T02:59:59.840Z,0.00
2016-09-20T03:01:00.084Z,0.00
2016-09-20T03:02:00.711Z,0.00
2016-09-20T03:03:01.346Z,0.00
2016-09-20T03:04:01.691Z,0.00
2016-09-20T03:05:02.191Z,0.00
2016-09-20T03:06:02.887Z,0.00
2016-09-20T03:07:03.342Z,0.00
2016-09-20T03:08:03.706Z,0.00
2016-09-20T03:09:04.050Z,0.00
2016-09-20T03:10:04.702Z,0.00
2016-09-20T03:11:05.067Z,0.00
2016-09-20T03:12:05.836Z,0.00
2016-09-20T03:13:06.045Z,0.00
2016-09-20T03:14:06.534Z,0.00
2016-09-20T03:15:07.057Z,0.00
2016-09-20T03:16:07.572Z,0.00
2016-09-20T03:17:08.187Z,0.00
2016-09-20T03:18:08.679Z,0.00
2016-09-20T03:19:09.222Z,0.00
2016-09-20T03:20:09.839Z,0.00
2016-09-20T03:21:10.329Z,0.00
2016-09-20T03:22:10.531Z,0.00
2016-09-20T03:23:11.358Z,0.00
2016-09-20T03:24:11.527Z,0.00
2016-09-20T03:25:12.041Z,0.00
2016-09-20T03:26:12.567Z,0.00
2016-09-20T03:27:13.196Z,0.00
2016-09-20T03:28:13.704Z,0.00
2016-09-20T03:29:14.032Z,0.00
2016-09-20T03:30:14.555Z,0.00
2016-09-20T03:31:15.344Z,0.00
2016-09-20T03:32:15.979Z,0.00
2016-09-20T03:33:16.351Z,0.00
2016-09-20T03:34:16.529Z,0.00
2016-09-20T03:35:17.033Z,0.00
2016-09-20T03:36:17.977Z,0.00
2016-09-20T03:37:18.044Z,0.00
2016-09-20T03:38:18.542Z,0.00
2016-09-20T03:39:19.229Z,0.00
2016-09-20T03:40:19.703Z,0.00
2016-09-20T03:41:20.031Z,0.00
2016-09-20T03:42:20.830Z,0.00
2016-09-20T03:43:21.367Z,0.00
2016-09-20T03:44:21.707Z,0.00
2016-09-20T03:45:22.074Z,0.00
2016-09-20T03:46:22.525Z,0.00
2016-09-20T03:47:23.176Z,0.00
2016-09-20T03:48:23.673Z,0.00
2016-09-20T03:49:24.320Z,0.00
2016-09-20T03:50:25.001Z,0.00
2016-09-20T03:51:25.039Z,0.00
2016-09-20T03:52:25.821Z,0.00
2016-09-20T03:53:26.193Z,0.00
2016-09-20T03:54:26.680Z,0.00
2016-09-20T03:55:27.171Z,0.00
2016-09-20T03:56:27.709Z,0.00
2016-09-20T03:57:28.170Z,0.00
2016-09-20T03:58:28.666Z,0.00
2016-09-20T03:59:29.196Z,0.00
2016-09-20T04:00:29.667Z,0.00
2016-09-20T04:01:30.022Z,0.00
2016-09-20T04:02:30.691Z,0.00
2016-09-20T04:03:31.163Z,0.00
2016-09-20T04:04:31.540Z,0.00
2016-09-20T04:05:32.178Z,0.00
2016-09-20T04:06:32.681Z,0.00
2016-09-20T04:07:33.198Z,0.00
2016-09-20T04:08:33.666Z,0.00
2016-09-20T04:09:34.490Z,0.00
2016-09-20T04:10:34.674Z,0.00
2016-09-20T04:11:35.042Z,0.00
2016-09-20T04:12:35.551Z,0.00
2016-09-20T04:13:38.428Z,0.00
2016-09-20T04:14:36.677Z,0.00
2016-09-20T04:15:37.184Z,0.00
2016-09-20T04:16:37.545Z,0.00
2016-09-20T04:17:38.185Z,0.00
2016-09-20T04:18:38.979Z,0.00
2016-09-20T04:19:39.329Z,0.00
2016-09-20T04:20:39.551Z,0.00
2016-09-20T04:21:40.039Z,0.00
2016-09-20T04:22:40.694Z,0.00
2016-09-20T04:23:41.340Z,0.00
2016-09-20T04:24:41.700Z,0.00
2016-09-20T04:25:42.332Z,0.00
2016-09-20T04:26:42.678Z,0.00
2016-09-20T04:27:43.357Z,0.00
2016-09-20T04:28:43.707Z,0.00
2016-09-20T04:29:44.034Z,0.00
2016-09-20T04:30:44.692Z,0.00
2016-09-20T04:31:45.078Z,0.00
2016-09-20T04:32:45.700Z,0.00
2016-09-20T04:33:46.205Z,0.00
2016-09-20T04:34:46.688Z,0.00
2016-09-20T04:35:47.186Z,0.00
2016-09-20T04:36:47.704Z,0.00
2016-09-20T04:37:48.046Z,0.00
2016-09-20T04:38:49.147Z,0.00
2016-09-20T04:39:49.197Z,0.00
2016-09-20T04:40:49.677Z,0.00
2016-09-20T04:41:50.029Z,0.00
2016-09-20T04:42:50.678Z,0.00
2016-09-20T04:43:51.190Z,0.00
2016-09-20T04:44:51.532Z,0.00
2016-09-20T04:45:52.210Z,0.00
2016-09-20T04:46:52.536Z,0.00
2016-09-20T04:47:53.528Z,0.00
2016-09-20T04:48:53.838Z,0.00
2016-09-20T04:50:54.845Z,0.00
2016-09-20T04:51:55.389Z,0.00
2016-09-20T04:52:55.712Z,0.00
2016-09-20T04:53:56.189Z,0.00
2016-09-20T04:54:56.709Z,0.00
2016-09-20T04:55:57.339Z,0.00
2016-09-20T04:56:57.688Z,0.00
2016-09-20T04:57:58.188Z,0.00
2016-09-20T04:59:00.648Z,2.00
2016-09-20T04:59:59.346Z,0.00
2016-09-20T05:00:59.731Z,0.00
2016-09-20T05:02:00.049Z,0.00
2016-09-20T05:03:00.987Z,0.00
2016-09-20T05:04:01.185Z,0.00
2016-09-20T05:05:01.687Z,0.00
2016-09-20T05:06:02.637Z,0.00
2016-09-20T05:07:02.847Z,0.00
2016-09-20T05:08:03.653Z,0.00
2016-09-20T05:09:03.558Z,0.00
2016-09-20T05:10:04.056Z,0.00
2016-09-20T05:11:04.696Z,0.00
2016-09-20T05:12:05.198Z,0.00
2016-09-20T05:13:05.841Z,0.00
2016-09-20T05:14:06.190Z,1.00
2016-09-20T05:15:06.836Z,0.00
2016-09-20T05:16:07.036Z,0.00
2016-09-20T05:17:07.860Z,0.00
2016-09-20T05:18:08.221Z,0.00
2016-09-20T05:19:08.701Z,0.00
2016-09-20T05:20:09.335Z,0.00
2016-09-20T05:21:09.986Z,0.00
2016-09-20T05:22:10.365Z,0.00
2016-09-20T05:23:10.866Z,0.00
2016-09-20T05:24:11.500Z,0.00
2016-09-20T05:25:11.695Z,0.00
2016-09-20T05:26:12.353Z,0.00
2016-09-20T05:27:12.563Z,0.00
2016-09-20T05:28:13.198Z,0.00
2016-09-20T05:29:13.711Z,0.00
2016-09-20T05:30:14.352Z,0.00
2016-09-20T05:31:14.715Z,0.00
2016-09-20T05:32:15.366Z,0.00
2016-09-20T05:33:15.697Z,0.00
2016-09-20T05:34:16.048Z,0.00
2016-09-20T05:35:16.717Z,0.00
2016-09-20T05:36:17.397Z,0.00
2016-09-20T05:37:17.999Z,0.00
2016-09-20T05:38:18.224Z,0.00
2016-09-20T05:39:18.847Z,0.00
2016-09-20T05:40:19.348Z,9.00
2016-09-20T05:41:19.567Z,0.00
2016-09-20T05:42:20.057Z,0.00
2016-09-20T05:43:20.569Z,0.00
2016-09-20T05:44:21.078Z,0.00
2016-09-20T05:45:21.596Z,0.00
2016-09-20T05:46:22.140Z,0.00
2016-09-20T05:47:22.618Z,0.00
2016-09-20T05:48:23.125Z,0.00
2016-09-20T05:49:23.643Z,0.00
2016-09-20T05:50:24.159Z,0.00
2016-09-20T05:51:24.663Z,0.00
2016-09-20T05:52:25.330Z,0.00
2016-09-20T05:53:25.693Z,0.00
2016-09-20T05:54:26.214Z,0.00
2016-09-20T05:55:26.871Z,0.00
2016-09-20T05:56:27.228Z,0.00
2016-09-20T05:57:27.749Z,0.00
2016-09-20T05:58:28.559Z,0.00
2016-09-20T05:59:28.778Z,0.00
2016-09-20T06:00:29.284Z,1.00
2016-09-20T06:01:30.870Z,1.00
2016-09-20T06:02:30.315Z,1.00
2016-09-20T06:03:30.975Z,1.00
2016-09-20T06:04:31.338Z,1.00
2016-09-20T06:05:31.847Z,1.00
2016-09-20T06:06:32.509Z,1.00
2016-09-20T06:07:32.870Z,1.00
2016-09-20T06:08:33.379Z,1.00
2016-09-20T06:09:33.891Z,1.00
2016-09-20T06:10:34.398Z,1.00
2016-09-20T06:11:34.915Z,1.00
2016-09-20T06:12:35.573Z,1.00
2016-09-20T06:13:35.938Z,1.00
2016-09-20T06:14:36.448Z,1.00
2016-09-20T06:15:36.965Z,9.00
2016-09-20T06:16:37.472Z,1.00
2016-09-20T06:17:37.980Z,1.00
2016-09-20T06:18:38.496Z,1.00
2016-09-20T06:19:39.011Z,1.00
2016-09-20T06:20:39.518Z,1.00
2016-09-20T06:21:40.050Z,1.00
2016-09-20T06:22:40.544Z,1.00
2016-09-20T06:23:41.058Z,1.00
2016-09-20T06:24:41.565Z,1.00
2016-09-20T06:25:42.076Z,1.00
2016-09-20T06:26:42.732Z,1.00
2016-09-20T06:27:43.103Z,1.00
2016-09-20T06:28:43.615Z,1.00
2016-09-20T06:29:44.270Z,1.00
2016-09-20T06:30:44.630Z,1.00
2016-09-20T06:31:45.892Z,1.00
2016-09-20T06:32:45.668Z,1.00
2016-09-20T06:33:46.163Z,2.00
2016-09-20T06:34:46.680Z,2.00
2016-09-20T06:35:47.193Z,2.00
2016-09-20T06:36:47.733Z,2.00
2016-09-20T06:37:48.231Z,2.00
2016-09-20T06:38:48.741Z,2.00
2016-09-20T06:39:49.248Z,2.00
2016-09-20T06:40:49.781Z,2.00
2016-09-20T06:41:50.274Z,2.00
2016-09-20T06:42:50.794Z,2.00
2016-09-20T06:43:51.450Z,2.00
2016-09-20T06:44:51.819Z,2.00
2016-09-20T06:45:52.331Z,2.00
2016-09-20T06:46:52.856Z,2.00
2016-09-20T06:47:53.354Z,2.00
2016-09-20T06:48:54.026Z,2.00
2016-09-20T06:49:56.178Z,2.00
2016-09-20T06:50:54.886Z,2.00
2016-09-20T06:51:55.406Z,3.00
2016-09-20T06:52:56.140Z,3.00
2016-09-20T06:53:56.457Z,3.00
2016-09-20T06:54:56.927Z,3.00
2016-09-20T06:55:57.443Z,3.00
2016-09-20T06:56:57.962Z,3.00
2016-09-20T06:57:58.621Z,3.00
2016-09-20T06:58:58.980Z,3.00
2016-09-20T06:59:59.494Z,3.00
2016-09-20T07:01:00.005Z,3.00
2016-09-20T07:02:00.512Z,3.00
2016-09-20T07:03:52.831Z,3.00
2016-09-20T07:05:02.057Z,3.00
2016-09-20T07:06:02.569Z,3.00
2016-09-20T07:07:03.111Z,3.00
2016-09-20T07:08:03.746Z,3.00
2016-09-20T07:09:04.113Z,3.00
2016-09-20T07:10:04.630Z,3.00
2016-09-20T07:11:05.160Z,3.00
2016-09-20T07:12:05.662Z,3.00
2016-09-20T07:13:06.180Z,3.00
2016-09-20T07:14:06.700Z,3.00
2016-09-20T07:15:07.365Z,3.00
2016-09-20T07:16:07.726Z,9.00
2016-09-20T07:17:08.243Z,3.00
2016-09-20T07:18:08.761Z,3.00
2016-09-20T07:19:09.268Z,4.00
2016-09-20T07:20:09.779Z,4.00
2016-09-20T07:21:10.298Z,4.00
2016-09-20T07:22:10.806Z,4.00
2016-09-20T07:23:11.321Z,4.00
2016-09-20T07:24:11.982Z,4.00
2016-09-20T07:25:12.341Z,4.00
2016-09-20T07:26:12.860Z,4.00
2016-09-20T07:27:13.398Z,4.00
2016-09-20T07:28:13.885Z,4.00
2016-09-20T07:29:14.400Z,4.00
2016-09-20T07:30:14.908Z,4.00
2016-09-20T07:31:15.422Z,4.00
2016-09-20T07:32:15.935Z,4.00
2016-09-20T07:33:16.450Z,4.00
2016-09-20T07:34:17.110Z,4.00
2016-09-20T07:35:18.522Z,5.00
2016-09-20T07:36:17.984Z,5.00
2016-09-20T07:37:18.492Z,5.00
2016-09-20T07:38:19.014Z,5.00
2016-09-20T07:39:19.521Z,5.00
2016-09-20T07:40:20.176Z,5.00
2016-09-20T07:41:20.541Z,5.00
2016-09-20T07:42:21.055Z,5.00
2016-09-20T07:43:21.570Z,5.00
2016-09-20T07:44:22.079Z,5.00
2016-09-20T07:45:22.592Z,5.00
2016-09-20T07:46:23.249Z,5.00
2016-09-20T07:47:23.618Z,5.00
2016-09-20T07:48:24.134Z,9.00
2016-09-20T07:49:24.651Z,5.00
2016-09-20T07:50:25.169Z,5.00
2016-09-20T07:51:25.686Z,5.00
2016-09-20T07:52:26.194Z,6.00
2016-09-20T07:53:26.708Z,6.00
2016-09-20T07:54:27.223Z,6.00
2016-09-20T07:55:27.732Z,6.00
2016-09-20T07:56:28.254Z,6.00
2016-09-20T07:57:28.765Z,6.00
2016-09-20T07:58:29.273Z,6.00
2016-09-20T07:59:29.781Z,6.00
2016-09-20T08:00:30.289Z,6.00
2016-09-20T08:01:30.832Z,7.00
2016-09-20T08:02:31.316Z,7.00
2016-09-20T08:03:31.830Z,7.00
2016-09-20T08:04:32.495Z,7.00
2016-09-20T08:05:32.858Z,7.00
2016-09-20T08:06:33.520Z,9.00
2016-09-20T08:07:33.885Z,7.00
2016-09-20T08:08:35.297Z,7.00
2016-09-20T08:09:34.907Z,7.00
2016-09-20T08:10:35.419Z,7.00
2016-09-20T08:11:35.934Z,7.00
2016-09-20T08:12:36.602Z,7.00
2016-09-20T08:13:36.957Z,7.00
2016-09-20T08:14:37.469Z,7.00
2016-09-20T08:15:37.979Z,7.00
2016-09-20T08:16:38.489Z,7.00
2016-09-20T08:17:39.000Z,7.00
2016-09-20T08:18:39.516Z,7.00
2016-09-20T08:19:40.026Z,7.00
2016-09-20T08:20:40.539Z,8.00
2016-09-20T08:21:41.202Z,8.00
2016-09-20T08:22:41.558Z,8.00
2016-09-20T08:23:42.073Z,8.00
2016-09-20T08:24:42.594Z,8.00
2016-09-20T08:25:43.099Z,8.00
2016-09-20T08:26:43.643Z,8.00
2016-09-20T08:27:44.148Z,9.00
2016-09-20T08:28:46.158Z,9.00
2016-09-20T08:29:45.169Z,9.00
2016-09-20T08:30:45.684Z,9.00
2016-09-20T08:31:46.199Z,9.00
2016-09-20T08:32:46.718Z,19.00
2016-09-20T08:33:47.229Z,10.00
2016-09-20T08:34:47.741Z,10.00
2016-09-20T08:35:48.414Z,10.00
2016-09-20T08:36:48.764Z,11.00
2016-09-20T08:37:49.272Z,11.00
2016-09-20T08:38:49.789Z,12.00
2016-09-20T08:39:50.302Z,12.00
2016-09-20T08:40:50.813Z,13.00
2016-09-20T08:41:51.327Z,13.00
2016-09-20T08:42:51.837Z,14.00
2016-09-20T08:43:52.506Z,15.00
2016-09-20T08:44:52.861Z,15.00
2016-09-20T08:45:53.372Z,16.00
2016-09-20T08:46:53.884Z,16.00
2016-09-20T08:47:54.417Z,16.00
2016-09-20T08:48:55.059Z,17.00
2016-09-20T08:49:55.418Z,18.00
2016-09-20T08:50:55.933Z,17.00
2016-09-20T08:51:56.446Z,17.00
2016-09-20T08:52:56.957Z,18.00
2016-09-20T08:53:57.473Z,17.00
2016-09-20T08:54:58.135Z,17.00
2016-09-20T08:55:58.497Z,17.00
2016-09-20T08:56:59.033Z,17.00
2016-09-20T08:57:59.518Z,16.00
2016-09-20T08:59:00.033Z,16.00
2016-09-20T09:00:00.544Z,16.00
2016-09-20T09:01:01.058Z,16.00
2016-09-20T09:02:01.574Z,16.00
2016-09-20T09:03:02.096Z,16.00
2016-09-20T09:04:02.614Z,16.00
2016-09-20T09:05:03.128Z,16.00
2016-09-20T09:06:03.686Z,16.00
2016-09-20T09:07:04.153Z,16.00
2016-09-20T09:08:04.684Z,16.00
2016-09-20T09:09:05.187Z,19.00
2016-09-20T09:10:05.693Z,15.00
2016-09-20T09:11:06.211Z,15.00
2016-09-20T09:12:06.720Z,14.00
2016-09-20T09:14:07.747Z,14.00
2016-09-20T09:15:08.408Z,14.00
2016-09-20T09:16:08.772Z,14.00
2016-09-20T09:17:09.279Z,14.00
2016-09-20T09:18:09.788Z,14.00
2016-09-20T09:19:10.299Z,14.00
2016-09-20T09:20:10.826Z,14.00
2016-09-20T09:21:11.322Z,14.00
2016-09-20T09:22:11.832Z,14.00
2016-09-20T09:23:12.352Z,14.00
2016-09-20T09:24:12.860Z,15.00
2016-09-20T09:25:13.366Z,15.00
2016-09-20T09:26:13.872Z,15.00
2016-09-20T09:27:14.387Z,16.00
2016-09-20T09:29:15.424Z,16.00
2016-09-20T09:30:15.927Z,17.00
2016-09-20T09:31:16.438Z,19.00
2016-09-20T09:32:17.097Z,18.00
2016-09-20T09:33:17.460Z,19.00
2016-09-20T09:34:17.974Z,29.00
2016-09-20T09:35:18.484Z,20.00
2016-09-20T09:36:19.009Z,21.00
2016-09-20T09:37:19.512Z,23.00
2016-09-20T09:38:20.025Z,24.00
2016-09-20T09:39:20.540Z,24.00
2016-09-20T09:40:21.080Z,24.00
2016-09-20T09:41:21.576Z,25.00
2016-09-20T09:42:22.088Z,26.00
2016-09-20T09:43:22.608Z,28.00
2016-09-20T09:44:23.113Z,29.00
2016-09-20T09:45:23.623Z,39.00
2016-09-20T09:46:24.283Z,31.00
2016-09-20T09:47:24.653Z,32.00
2016-09-20T09:48:25.155Z,31.00
2016-09-20T09:49:25.663Z,32.00
2016-09-20T09:50:27.081Z,33.00
2016-09-20T09:51:26.688Z,35.00
2016-09-20T09:52:27.201Z,36.00
2016-09-20T09:53:27.715Z,79.00
2016-09-20T09:54:28.225Z,47.00
2016-09-20T09:55:28.741Z,69.00
2016-09-20T09:56:29.262Z,89.00
2016-09-20T09:57:29.920Z,46.00
2016-09-20T09:58:30.432Z,45.00
2016-09-20T09:59:30.789Z,49.00
2016-09-20T10:00:31.304Z,79.00
2016-09-20T10:01:31.818Z,55.00
2016-09-20T10:02:32.327Z,49.00
2016-09-20T10:03:32.986Z,57.00
2016-09-20T10:04:33.348Z,76.00
2016-09-20T10:05:33.860Z,83.00
2016-09-20T10:06:34.370Z,87.00
2016-09-20T10:07:34.880Z,59.00
2016-09-20T10:08:35.386Z,59.00
2016-09-20T10:09:35.898Z,88.00
2016-09-20T10:10:36.409Z,87.00
2016-09-20T10:11:36.920Z,86.00
2016-09-20T10:12:37.432Z,89.00
2016-09-20T10:13:37.945Z,89.00
2016-09-20T10:14:38.469Z,89.00
2016-09-20T10:15:38.983Z,89.00
2016-09-20T10:16:39.499Z,80.00
2016-09-20T10:17:40.035Z,79.00
2016-09-20T10:18:40.530Z,89.00
2016-09-20T10:19:41.041Z,79.00
2016-09-20T10:20:41.555Z,79.00
2016-09-20T10:21:42.073Z,74.00
2016-09-20T10:22:42.586Z,79.00
2016-09-20T10:24:43.608Z,39.00
2016-09-20T10:25:44.120Z,58.00
2016-09-20T10:26:44.657Z,69.00
2016-09-20T10:27:45.140Z,60.00
2016-09-20T10:28:45.661Z,79.00
2016-09-20T10:29:46.170Z,75.00
2016-09-20T10:30:46.675Z,75.00
2016-09-20T10:31:47.339Z,76.00
2016-09-20T10:32:47.703Z,76.00
2016-09-20T10:33:48.216Z,77.00
2016-09-20T10:34:48.881Z,75.00
2016-09-20T10:35:49.241Z,72.00
2016-09-20T10:36:49.756Z,23.00
2016-09-20T10:37:50.264Z,24.00
2016-09-20T10:38:50.779Z,79.00
2016-09-20T10:39:51.336Z,73.00
2016-09-20T10:40:51.811Z,79.00
2016-09-20T10:41:52.321Z,69.00
2016-09-20T10:42:52.833Z,69.00
2016-09-20T10:43:53.349Z,69.00
2016-09-20T10:44:53.861Z,68.00
2016-09-20T10:45:54.378Z,67.00
2016-09-20T10:46:54.881Z,66.00
2016-09-20T10:47:55.394Z,65.00
2016-09-20T10:48:55.906Z,65.00
2016-09-20T10:49:56.422Z,65.00
2016-09-20T10:50:56.930Z,65.00
2016-09-20T10:51:57.456Z,64.00
2016-09-20T10:52:57.965Z,64.00
2016-09-20T10:53:58.513Z,63.00
2016-09-20T10:54:59.006Z,62.00
2016-09-20T10:55:59.516Z,63.00
2016-09-20T10:57:00.034Z,63.00
2016-09-20T10:58:00.545Z,69.00
2016-09-20T10:59:01.069Z,69.00
2016-09-20T11:00:01.570Z,69.00
2016-09-20T11:01:02.081Z,66.00
2016-09-20T11:02:02.591Z,61.00
2016-09-20T11:03:03.101Z,69.00
2016-09-20T11:04:03.613Z,69.00
2016-09-20T11:05:04.124Z,66.00
2016-09-20T11:06:04.817Z,59.00
2016-09-20T11:07:05.175Z,69.00
2016-09-20T11:08:05.805Z,69.00
2016-09-20T11:09:06.179Z,60.00
2016-09-20T11:10:06.683Z,58.00
2016-09-20T11:11:07.192Z,59.00
2016-09-20T11:12:07.702Z,58.00
2016-09-20T11:13:08.216Z,59.00
2016-09-20T11:14:08.730Z,69.00
2016-09-20T11:15:09.248Z,62.00
2016-09-20T11:16:09.755Z,62.00
2016-09-20T11:17:10.269Z,59.00
2016-09-20T11:18:10.933Z,68.00
2016-09-20T11:19:11.295Z,54.00
2016-09-20T11:20:11.812Z,39.00
2016-09-20T11:21:12.331Z,56.00
2016-09-20T11:22:12.832Z,69.00
2016-09-20T11:23:13.497Z,61.00
2016-09-20T11:24:13.862Z,59.00
2016-09-20T11:25:16.167Z,59.00
2016-09-20T11:26:14.879Z,69.00
2016-09-20T11:27:15.388Z,59.00
2016-09-20T11:28:15.919Z,59.00
2016-09-20T11:29:16.410Z,58.00
2016-09-20T11:30:16.928Z,48.00
2016-09-20T11:31:17.442Z,27.00
2016-09-20T11:32:17.964Z,59.00
2016-09-20T11:33:18.479Z,47.00
2016-09-20T11:34:18.998Z,45.00
2016-09-20T11:35:19.505Z,56.00
2016-09-20T11:36:20.021Z,57.00
2016-09-20T11:37:20.522Z,56.00
2016-09-20T11:38:21.035Z,57.00
2016-09-20T11:39:21.544Z,22.00
2016-09-20T11:40:22.205Z,20.00
2016-09-20T11:41:22.606Z,20.00
2016-09-20T11:42:23.078Z,26.00
2016-09-20T11:43:23.591Z,25.00
2016-09-20T11:44:24.104Z,21.00
2016-09-20T11:45:24.615Z,21.00
2016-09-20T11:46:25.125Z,23.00
2016-09-20T11:47:25.640Z,19.00
2016-09-20T11:48:26.306Z,19.00
2016-09-20T11:49:26.815Z,16.00
2016-09-20T11:50:27.180Z,18.00
2016-09-20T11:51:27.691Z,48.00
2016-09-20T11:52:28.209Z,42.00
2016-09-20T11:53:28.718Z,46.00
2016-09-20T11:54:29.382Z,48.00
2016-09-20T11:55:29.740Z,45.00
2016-09-20T11:56:30.248Z,45.00
2016-09-20T11:57:30.912Z,46.00
2016-09-20T11:58:31.269Z,29.00
2016-09-20T11:59:31.780Z,45.00
2016-09-20T12:00:32.286Z,46.00
2016-09-20T12:01:32.803Z,47.00
2016-09-20T12:02:33.329Z,29.00
2016-09-20T12:03:33.821Z,48.00
2016-09-20T12:04:34.335Z,45.00
2016-09-20T12:05:34.875Z,45.00
2016-09-20T12:06:35.379Z,45.00
2016-09-20T12:07:35.894Z,45.00
2016-09-20T12:08:36.398Z,46.00
2016-09-20T12:09:36.917Z,47.00
2016-09-20T12:10:37.425Z,47.00
2016-09-20T12:11:37.936Z,47.00
2016-09-20T12:12:38.450Z,48.00
2016-09-20T12:13:38.951Z,48.00
2016-09-20T12:14:39.467Z,48.00
2016-09-20T12:15:39.980Z,47.00
2016-09-20T12:16:40.498Z,39.00
2016-09-20T12:17:41.011Z,29.00
2016-09-20T12:18:41.520Z,25.00
2016-09-20T12:19:42.031Z,29.00
2016-09-20T12:20:42.548Z,49.00
2016-09-20T12:21:43.057Z,21.00
2016-09-20T12:22:43.567Z,29.00
2016-09-20T12:23:44.076Z,20.00
2016-09-20T12:24:44.591Z,22.00
2016-09-20T12:25:45.247Z,29.00
2016-09-20T12:26:45.756Z,29.00
2016-09-20T12:27:46.125Z,39.00
2016-09-20T12:28:46.632Z,48.00
2016-09-20T12:29:47.146Z,48.00
2016-09-20T12:30:47.688Z,49.00
2016-09-20T12:31:48.167Z,43.00
2016-09-20T12:32:48.674Z,26.00
2016-09-20T12:33:49.189Z,36.00
2016-09-20T12:34:49.702Z,49.00
2016-09-20T12:35:50.225Z,23.00
2016-09-20T12:36:50.732Z,21.00
2016-09-20T12:37:51.245Z,21.00
2016-09-20T12:38:51.765Z,26.00
2016-09-20T12:39:52.420Z,27.00
2016-09-20T12:40:52.809Z,48.00
2016-09-20T12:41:53.303Z,49.00
2016-09-20T12:42:53.816Z,49.00
2016-09-20T12:43:54.332Z,49.00
2016-09-20T12:44:54.850Z,44.00
2016-09-20T12:45:55.370Z,48.00
2016-09-20T12:46:55.889Z,49.00
2016-09-20T12:47:56.413Z,38.00
2016-09-20T12:48:56.920Z,18.00
2016-09-20T12:49:57.435Z,19.00
2016-09-20T12:50:57.952Z,49.00
2016-09-20T12:51:58.612Z,49.00
2016-09-20T12:52:58.986Z,38.00
2016-09-20T12:53:59.493Z,31.00
2016-09-20T12:55:00.003Z,22.00
2016-09-20T12:56:00.542Z,21.00
2016-09-20T12:57:01.176Z,21.00
2016-09-20T12:58:01.689Z,21.00
2016-09-20T12:59:02.048Z,26.00
2016-09-20T13:00:02.562Z,36.00
2016-09-20T13:01:04.576Z,21.00
2016-09-20T13:02:03.589Z,25.00
2016-09-20T13:03:04.101Z,49.00
2016-09-20T13:04:04.620Z,42.00
2016-09-20T13:05:05.125Z,26.00
2016-09-20T13:06:05.791Z,23.00
2016-09-20T13:07:06.154Z,38.00
2016-09-20T13:08:06.675Z,39.00
2016-09-20T13:09:07.179Z,37.00
2016-09-20T13:10:07.693Z,39.00
2016-09-20T13:11:08.232Z,39.00
2016-09-20T13:12:08.716Z,26.00
2016-09-20T13:13:09.234Z,21.00
2016-09-20T13:14:09.750Z,20.00
2016-09-20T13:15:10.263Z,18.00
2016-09-20T13:16:11.077Z,17.00
2016-09-20T13:17:11.286Z,17.00
2016-09-20T13:18:11.798Z,16.00
2016-09-20T13:19:12.316Z,16.00
2016-09-20T13:20:12.829Z,15.00
2016-09-20T13:21:13.340Z,15.00